Nur fliegen ist schöner ....

Willkommen beim Flugservice Bautzen GmbH

Wir sind eine nach europäischen Richtlinien zugelassene Flugschule und lizenziertes Luftfahrtunternehmen. Bei uns können sie nicht nur Rundflüge über die Oberlausitz oder Sachsen buchen, sondern in unserer Flugschule selber das Fliegen erlernen. Erfahrene Fluglehrer stehen ihnen dabei zur Seite.

Wir bieten außerdem Businessflüghe sowie Transportleistungen auf dem Luftweg, ganz nach ihren Wünschen, an. Schauen sie sich in Ruhe bei uns um und wenn sie Fragen haben oder weitere Informationen benötigen, scheuen sie sich nicht Kontakt mit uns aufzunehmen.

Rundflüge können sie ganz leicht auch online in unserem Shop buchen.

Terminkalender

Letzter Monat Juni 2016 Nächster Monat
Mo Di Mi Do Fr Sa So
week 22 1 2 3 4 5
week 23 6 7 8 9 10 11 12
week 24 13 14 15 16 17 18 19
week 25 20 21 22 23 24 25 26
week 26 27 28 29 30

Flugwetterinfo

[Quelle: ADDS]
METAR
EDDC 251220Z 28005KT 250V310 9999 FEW035CB BKN230 26/21 Q1010 TEMPO 24020G40KT 3000 TSRA =
TAF
EDDC 251100Z 2512/2612 VRB03KT 9999 SCT040 TEMPO 2512/2520 25020G45KT 2500 TSRAGR BKN020CB BECMG 2513/2516 25008KT TEMPO 2523/2608 BKN012 PROB30 TEMPO 2601/2606 2500 TSRA BKN004 BKN008CB =
SR / SS: 02:47 / 19:21 UTC (EDAB Flugplatz Bautzen 2016-06-25)

Webcam EDAB

Webcam EDAB
Flugservice Bautzen GmbH, Kornmarkt 34, 02625 Bautzen  Telefon: +49 (3591) 211105, Telefax: +49 (3591) 274512, E-Mail:  flugservice(at)fsbautzen.de